sensor_id;sensor_type;location;lat;lon;timestamp;P1;durP1;ratioP1;P2;durP2;ratioP2
17850;SDS011;9051;51.548;14.348;2022-10-31T00:01:58;11.50;;;8.37;;
17850;SDS011;9051;51.548;14.348;2022-10-31T00:04:30;11.30;;;7.57;;
17850;SDS011;9051;51.548;14.348;2022-10-31T00:07:02;11.57;;;7.77;;
17850;SDS011;9051;51.548;14.348;2022-10-31T00:09:34;15.00;;;7.60;;
17850;SDS011;9051;51.548;14.348;2022-10-31T00:12:07;11.80;;;8.27;;
17850;SDS011;9051;51.548;14.348;2022-10-31T00:14:39;13.73;;;8.27;;
17850;SDS011;9051;51.548;14.348;2022-10-31T00:17:11;12.13;;;8.43;;
17850;SDS011;9051;51.548;14.348;2022-10-31T00:19:42;15.20;;;8.60;;
17850;SDS011;9051;51.548;14.348;2022-10-31T00:22:14;11.93;;;8.13;;
17850;SDS011;9051;51.548;14.348;2022-10-31T00:24:47;11.17;;;8.83;;
17850;SDS011;9051;51.548;14.348;2022-10-31T00:27:20;13.47;;;9.23;;
17850;SDS011;9051;51.548;14.348;2022-10-31T00:29:52;12.57;;;8.83;;
17850;SDS011;9051;51.548;14.348;2022-10-31T00:32:24;14.50;;;9.60;;
17850;SDS011;9051;51.548;14.348;2022-10-31T00:34:55;13.73;;;8.97;;
17850;SDS011;9051;51.548;14.348;2022-10-31T00:37:28;13.37;;;9.77;;
17850;SDS011;9051;51.548;14.348;2022-10-31T00:40:00;12.60;;;9.60;;
17850;SDS011;9051;51.548;14.348;2022-10-31T00:42:33;15.23;;;10.07;;
17850;SDS011;9051;51.548;14.348;2022-10-31T00:45:06;11.43;;;9.43;;
17850;SDS011;9051;51.548;14.348;2022-10-31T00:47:38;11.83;;;9.30;;
17850;SDS011;9051;51.548;14.348;2022-10-31T00:50:10;11.30;;;8.87;;
17850;SDS011;9051;51.548;14.348;2022-10-31T00:52:42;14.47;;;9.40;;
17850;SDS011;9051;51.548;14.348;2022-10-31T00:55:14;14.67;;;9.17;;
17850;SDS011;9051;51.548;14.348;2022-10-31T00:57:47;14.20;;;8.87;;
17850;SDS011;9051;51.548;14.348;2022-10-31T01:00:19;13.10;;;9.60;;
17850;SDS011;9051;51.548;14.348;2022-10-31T01:02:52;10.63;;;8.53;;
17850;SDS011;9051;51.548;14.348;2022-10-31T01:05:24;15.80;;;8.93;;
17850;SDS011;9051;51.548;14.348;2022-10-31T01:07:56;12.30;;;9.20;;
17850;SDS011;9051;51.548;14.348;2022-10-31T01:10:30;13.83;;;9.17;;
17850;SDS011;9051;51.548;14.348;2022-10-31T01:13:03;12.67;;;8.50;;
17850;SDS011;9051;51.548;14.348;2022-10-31T01:15:35;12.70;;;8.97;;
17850;SDS011;9051;51.548;14.348;2022-10-31T01:18:10;12.23;;;8.43;;
17850;SDS011;9051;51.548;14.348;2022-10-31T01:20:42;10.73;;;8.47;;
17850;SDS011;9051;51.548;14.348;2022-10-31T01:23:14;13.37;;;8.60;;
17850;SDS011;9051;51.548;14.348;2022-10-31T01:25:46;14.60;;;9.87;;
17850;SDS011;9051;51.548;14.348;2022-10-31T01:28:20;13.00;;;9.87;;
17850;SDS011;9051;51.548;14.348;2022-10-31T01:30:52;14.63;;;9.57;;
17850;SDS011;9051;51.548;14.348;2022-10-31T01:33:24;11.60;;;9.60;;
17850;SDS011;9051;51.548;14.348;2022-10-31T01:35:56;13.57;;;9.07;;
17850;SDS011;9051;51.548;14.348;2022-10-31T01:38:29;16.40;;;9.83;;
17850;SDS011;9051;51.548;14.348;2022-10-31T01:41:01;12.70;;;9.33;;
17850;SDS011;9051;51.548;14.348;2022-10-31T01:43:48;14.13;;;9.17;;
17850;SDS011;9051;51.548;14.348;2022-10-31T01:46:22;13.30;;;8.97;;
17850;SDS011;9051;51.548;14.348;2022-10-31T01:48:57;13.30;;;9.77;;
17850;SDS011;9051;51.548;14.348;2022-10-31T01:51:33;13.30;;;8.83;;
17850;SDS011;9051;51.548;14.348;2022-10-31T01:54:07;15.50;;;8.93;;
17850;SDS011;9051;51.548;14.348;2022-10-31T01:56:42;13.23;;;8.63;;
17850;SDS011;9051;51.548;14.348;2022-10-31T01:59:20;12.00;;;9.37;;
17850;SDS011;9051;51.548;14.348;2022-10-31T02:01:53;14.67;;;9.00;;
17850;SDS011;9051;51.548;14.348;2022-10-31T02:04:25;12.50;;;8.27;;
17850;SDS011;9051;51.548;14.348;2022-10-31T02:06:59;12.70;;;8.53;;
17850;SDS011;9051;51.548;14.348;2022-10-31T02:09:36;13.63;;;8.73;;
17850;SDS011;9051;51.548;14.348;2022-10-31T02:12:09;14.13;;;9.13;;
17850;SDS011;9051;51.548;14.348;2022-10-31T02:14:44;12.47;;;8.50;;
17850;SDS011;9051;51.548;14.348;2022-10-31T02:17:17;12.80;;;8.57;;
17850;SDS011;9051;51.548;14.348;2022-10-31T02:19:51;12.83;;;8.30;;
17850;SDS011;9051;51.548;14.348;2022-10-31T02:22:29;11.83;;;8.13;;
17850;SDS011;9051;51.548;14.348;2022-10-31T02:25:12;14.73;;;8.30;;
17850;SDS011;9051;51.548;14.348;2022-10-31T02:28:06;12.33;;;8.03;;
17850;SDS011;9051;51.548;14.348;2022-10-31T02:31:07;11.77;;;8.13;;
17850;SDS011;9051;51.548;14.348;2022-10-31T02:33:50;12.00;;;7.47;;
17850;SDS011;9051;51.548;14.348;2022-10-31T02:36:25;15.07;;;7.73;;
17850;SDS011;9051;51.548;14.348;2022-10-31T02:39:02;13.30;;;7.53;;
17850;SDS011;9051;51.548;14.348;2022-10-31T02:41:47;12.73;;;7.90;;
17850;SDS011;9051;51.548;14.348;2022-10-31T02:44:25;11.20;;;7.63;;
17850;SDS011;9051;51.548;14.348;2022-10-31T02:47:05;14.77;;;7.43;;
17850;SDS011;9051;51.548;14.348;2022-10-31T02:49:40;11.07;;;7.53;;
17850;SDS011;9051;51.548;14.348;2022-10-31T02:52:17;11.27;;;7.37;;
17850;SDS011;9051;51.548;14.348;2022-10-31T02:54:50;14.53;;;7.73;;
17850;SDS011;9051;51.548;14.348;2022-10-31T02:57:24;11.50;;;8.17;;
17850;SDS011;9051;51.548;14.348;2022-10-31T03:00:00;10.57;;;7.37;;
17850;SDS011;9051;51.548;14.348;2022-10-31T03:02:42;12.80;;;7.10;;
17850;SDS011;9051;51.548;14.348;2022-10-31T03:05:27;11.67;;;6.93;;
17850;SDS011;9051;51.548;14.348;2022-10-31T03:08:06;14.00;;;7.07;;
17850;SDS011;9051;51.548;14.348;2022-10-31T03:10:47;9.73;;;7.47;;
17850;SDS011;9051;51.548;14.348;2022-10-31T03:13:32;11.10;;;7.23;;
17850;SDS011;9051;51.548;14.348;2022-10-31T03:16:10;9.90;;;7.33;;
17850;SDS011;9051;51.548;14.348;2022-10-31T03:18:50;12.27;;;7.60;;
17850;SDS011;9051;51.548;14.348;2022-10-31T03:21:27;10.73;;;7.10;;
17850;SDS011;9051;51.548;14.348;2022-10-31T03:24:04;9.97;;;6.73;;
17850;SDS011;9051;51.548;14.348;2022-10-31T03:26:39;10.70;;;6.90;;
17850;SDS011;9051;51.548;14.348;2022-10-31T03:29:15;11.17;;;6.70;;
17850;SDS011;9051;51.548;14.348;2022-10-31T03:31:51;10.97;;;7.10;;
17850;SDS011;9051;51.548;14.348;2022-10-31T03:34:28;11.30;;;6.50;;
17850;SDS011;9051;51.548;14.348;2022-10-31T03:37:03;10.50;;;6.63;;
17850;SDS011;9051;51.548;14.348;2022-10-31T03:39:38;11.43;;;6.97;;
17850;SDS011;9051;51.548;14.348;2022-10-31T03:42:16;12.10;;;6.97;;
17850;SDS011;9051;51.548;14.348;2022-10-31T03:44:53;13.50;;;7.17;;
17850;SDS011;9051;51.548;14.348;2022-10-31T03:47:31;11.20;;;6.63;;
17850;SDS011;9051;51.548;14.348;2022-10-31T03:50:05;8.53;;;6.43;;
17850;SDS011;9051;51.548;14.348;2022-10-31T03:52:41;10.82;;;6.57;;
17850;SDS011;9051;51.548;14.348;2022-10-31T03:55:18;10.03;;;6.30;;
17850;SDS011;9051;51.548;14.348;2022-10-31T03:57:56;9.70;;;6.37;;
17850;SDS011;9051;51.548;14.348;2022-10-31T04:00:31;10.73;;;6.43;;
17850;SDS011;9051;51.548;14.348;2022-10-31T04:03:07;10.53;;;6.50;;
17850;SDS011;9051;51.548;14.348;2022-10-31T04:05:47;9.30;;;6.13;;
17850;SDS011;9051;51.548;14.348;2022-10-31T04:08:23;12.77;;;7.20;;
17850;SDS011;9051;51.548;14.348;2022-10-31T04:10:59;9.60;;;6.53;;
17850;SDS011;9051;51.548;14.348;2022-10-31T04:13:35;7.90;;;6.13;;
17850;SDS011;9051;51.548;14.348;2022-10-31T04:16:15;11.27;;;6.43;;
17850;SDS011;9051;51.548;14.348;2022-10-31T04:18:48;10.33;;;6.90;;
17850;SDS011;9051;51.548;14.348;2022-10-31T04:21:27;9.80;;;6.63;;
17850;SDS011;9051;51.548;14.348;2022-10-31T04:24:01;8.13;;;6.07;;
17850;SDS011;9051;51.548;14.348;2022-10-31T04:26:34;8.93;;;6.13;;
17850;SDS011;9051;51.548;14.348;2022-10-31T04:29:06;10.50;;;6.03;;
17850;SDS011;9051;51.548;14.348;2022-10-31T04:31:38;8.40;;;6.17;;
17850;SDS011;9051;51.548;14.348;2022-10-31T04:34:10;9.67;;;6.33;;
17850;SDS011;9051;51.548;14.348;2022-10-31T04:36:44;10.70;;;6.27;;
17850;SDS011;9051;51.548;14.348;2022-10-31T04:39:18;9.67;;;6.33;;
17850;SDS011;9051;51.548;14.348;2022-10-31T04:42:05;12.03;;;6.67;;
17850;SDS011;9051;51.548;14.348;2022-10-31T04:44:37;8.47;;;5.77;;
17850;SDS011;9051;51.548;14.348;2022-10-31T04:47:09;12.83;;;6.27;;
17850;SDS011;9051;51.548;14.348;2022-10-31T04:49:41;9.67;;;5.27;;
17850;SDS011;9051;51.548;14.348;2022-10-31T04:52:17;9.20;;;6.00;;
17850;SDS011;9051;51.548;14.348;2022-10-31T04:54:49;9.07;;;5.73;;
17850;SDS011;9051;51.548;14.348;2022-10-31T04:57:44;10.90;;;6.27;;
17850;SDS011;9051;51.548;14.348;2022-10-31T05:00:19;9.33;;;6.13;;
17850;SDS011;9051;51.548;14.348;2022-10-31T05:02:55;8.70;;;5.67;;
17850;SDS011;9051;51.548;14.348;2022-10-31T05:05:30;9.13;;;6.10;;
17850;SDS011;9051;51.548;14.348;2022-10-31T05:08:07;11.37;;;5.90;;
17850;SDS011;9051;51.548;14.348;2022-10-31T05:10:40;11.60;;;6.27;;
17850;SDS011;9051;51.548;14.348;2022-10-31T05:13:14;12.37;;;6.40;;
17850;SDS011;9051;51.548;14.348;2022-10-31T05:16:05;9.90;;;5.70;;
17850;SDS011;9051;51.548;14.348;2022-10-31T05:18:57;10.17;;;5.60;;
17850;SDS011;9051;51.548;14.348;2022-10-31T05:21:51;9.50;;;6.17;;
17850;SDS011;9051;51.548;14.348;2022-10-31T05:24:25;11.10;;;5.70;;
17850;SDS011;9051;51.548;14.348;2022-10-31T05:26:57;10.70;;;6.20;;
17850;SDS011;9051;51.548;14.348;2022-10-31T05:29:29;9.13;;;5.67;;
17850;SDS011;9051;51.548;14.348;2022-10-31T05:32:04;11.07;;;6.10;;
17850;SDS011;9051;51.548;14.348;2022-10-31T05:34:55;8.07;;;5.27;;
17850;SDS011;9051;51.548;14.348;2022-10-31T05:37:45;7.43;;;5.60;;
17850;SDS011;9051;51.548;14.348;2022-10-31T05:40:19;11.07;;;6.40;;
17850;SDS011;9051;51.548;14.348;2022-10-31T05:42:52;11.03;;;6.30;;
17850;SDS011;9051;51.548;14.348;2022-10-31T05:45:25;9.27;;;6.00;;
17850;SDS011;9051;51.548;14.348;2022-10-31T05:48:04;8.13;;;5.47;;
17850;SDS011;9051;51.548;14.348;2022-10-31T05:50:56;8.40;;;5.90;;
17850;SDS011;9051;51.548;14.348;2022-10-31T05:53:29;8.83;;;5.80;;
17850;SDS011;9051;51.548;14.348;2022-10-31T05:56:03;10.43;;;5.97;;
17850;SDS011;9051;51.548;14.348;2022-10-31T05:58:35;9.53;;;5.80;;
17850;SDS011;9051;51.548;14.348;2022-10-31T06:01:09;6.53;;;5.60;;
17850;SDS011;9051;51.548;14.348;2022-10-31T06:03:42;7.57;;;5.97;;
17850;SDS011;9051;51.548;14.348;2022-10-31T06:06:14;10.23;;;5.93;;
17850;SDS011;9051;51.548;14.348;2022-10-31T06:08:45;8.63;;;5.97;;
17850;SDS011;9051;51.548;14.348;2022-10-31T06:11:23;10.87;;;6.17;;
17850;SDS011;9051;51.548;14.348;2022-10-31T06:14:07;7.33;;;5.30;;
17850;SDS011;9051;51.548;14.348;2022-10-31T06:16:50;8.27;;;5.73;;
17850;SDS011;9051;51.548;14.348;2022-10-31T06:19:45;10.17;;;5.90;;
17850;SDS011;9051;51.548;14.348;2022-10-31T06:22:23;9.60;;;6.23;;
17850;SDS011;9051;51.548;14.348;2022-10-31T06:24:55;11.73;;;6.00;;
17850;SDS011;9051;51.548;14.348;2022-10-31T06:27:34;9.13;;;5.23;;
17850;SDS011;9051;51.548;14.348;2022-10-31T06:30:14;9.57;;;5.93;;
17850;SDS011;9051;51.548;14.348;2022-10-31T06:32:46;7.63;;;5.93;;
17850;SDS011;9051;51.548;14.348;2022-10-31T06:35:19;8.27;;;6.00;;
17850;SDS011;9051;51.548;14.348;2022-10-31T06:37:54;8.97;;;5.77;;
17850;SDS011;9051;51.548;14.348;2022-10-31T06:40:44;10.20;;;5.60;;
17850;SDS011;9051;51.548;14.348;2022-10-31T06:43:40;12.53;;;6.10;;
17850;SDS011;9051;51.548;14.348;2022-10-31T06:46:39;9.83;;;5.77;;
17850;SDS011;9051;51.548;14.348;2022-10-31T06:49:31;9.23;;;5.40;;
17850;SDS011;9051;51.548;14.348;2022-10-31T06:52:06;10.07;;;5.90;;
17850;SDS011;9051;51.548;14.348;2022-10-31T06:54:38;9.27;;;6.10;;
17850;SDS011;9051;51.548;14.348;2022-10-31T06:57:12;12.50;;;6.37;;
17850;SDS011;9051;51.548;14.348;2022-10-31T06:59:48;10.03;;;6.40;;
17850;SDS011;9051;51.548;14.348;2022-10-31T07:02:36;9.67;;;5.40;;
17850;SDS011;9051;51.548;14.348;2022-10-31T07:05:09;12.17;;;6.13;;
17850;SDS011;9051;51.548;14.348;2022-10-31T07:07:41;12.97;;;6.40;;
17850;SDS011;9051;51.548;14.348;2022-10-31T07:10:13;9.40;;;6.23;;
17850;SDS011;9051;51.548;14.348;2022-10-31T07:12:58;9.77;;;5.77;;
17850;SDS011;9051;51.548;14.348;2022-10-31T07:15:38;7.47;;;5.53;;
17850;SDS011;9051;51.548;14.348;2022-10-31T07:18:12;10.90;;;5.97;;
17850;SDS011;9051;51.548;14.348;2022-10-31T07:20:44;8.47;;;6.10;;
17850;SDS011;9051;51.548;14.348;2022-10-31T07:23:16;12.73;;;6.30;;
17850;SDS011;9051;51.548;14.348;2022-10-31T07:25:55;11.20;;;6.20;;
17850;SDS011;9051;51.548;14.348;2022-10-31T07:28:31;8.17;;;6.27;;
17850;SDS011;9051;51.548;14.348;2022-10-31T07:31:06;11.07;;;6.50;;
17850;SDS011;9051;51.548;14.348;2022-10-31T07:33:38;12.13;;;6.93;;
17850;SDS011;9051;51.548;14.348;2022-10-31T07:36:30;10.10;;;5.90;;
17850;SDS011;9051;51.548;14.348;2022-10-31T07:39:07;8.43;;;5.70;;
17850;SDS011;9051;51.548;14.348;2022-10-31T07:41:40;10.10;;;5.97;;
17850;SDS011;9051;51.548;14.348;2022-10-31T07:44:13;8.93;;;5.90;;
17850;SDS011;9051;51.548;14.348;2022-10-31T07:47:05;11.10;;;6.30;;
17850;SDS011;9051;51.548;14.348;2022-10-31T07:49:55;11.60;;;5.87;;
17850;SDS011;9051;51.548;14.348;2022-10-31T07:52:30;8.50;;;6.60;;
17850;SDS011;9051;51.548;14.348;2022-10-31T07:55:31;8.63;;;5.73;;
17850;SDS011;9051;51.548;14.348;2022-10-31T07:58:04;9.97;;;5.30;;
17850;SDS011;9051;51.548;14.348;2022-10-31T08:00:41;6.53;;;5.47;;
17850;SDS011;9051;51.548;14.348;2022-10-31T08:03:19;9.57;;;5.67;;
17850;SDS011;9051;51.548;14.348;2022-10-31T08:06:26;11.27;;;5.83;;
17850;SDS011;9051;51.548;14.348;2022-10-31T08:09:16;10.90;;;5.63;;
17850;SDS011;9051;51.548;14.348;2022-10-31T08:11:49;9.27;;;5.33;;
17850;SDS011;9051;51.548;14.348;2022-10-31T08:14:21;9.73;;;6.00;;
17850;SDS011;9051;51.548;14.348;2022-10-31T08:16:55;8.20;;;5.63;;
17850;SDS011;9051;51.548;14.348;2022-10-31T08:19:35;11.33;;;6.03;;
17850;SDS011;9051;51.548;14.348;2022-10-31T08:22:06;9.80;;;5.57;;
17850;SDS011;9051;51.548;14.348;2022-10-31T08:24:38;7.57;;;5.30;;
17850;SDS011;9051;51.548;14.348;2022-10-31T08:27:11;7.43;;;5.27;;
17850;SDS011;9051;51.548;14.348;2022-10-31T08:29:43;10.27;;;5.77;;
17850;SDS011;9051;51.548;14.348;2022-10-31T08:32:16;11.73;;;5.57;;
17850;SDS011;9051;51.548;14.348;2022-10-31T08:35:13;10.90;;;5.20;;
17850;SDS011;9051;51.548;14.348;2022-10-31T08:38:06;7.40;;;5.60;;
17850;SDS011;9051;51.548;14.348;2022-10-31T08:40:41;8.67;;;5.67;;
17850;SDS011;9051;51.548;14.348;2022-10-31T08:43:14;9.73;;;5.43;;
17850;SDS011;9051;51.548;14.348;2022-10-31T08:45:48;8.77;;;5.30;;
17850;SDS011;9051;51.548;14.348;2022-10-31T08:48:27;9.17;;;5.60;;
17850;SDS011;9051;51.548;14.348;2022-10-31T08:51:02;7.63;;;5.67;;
17850;SDS011;9051;51.548;14.348;2022-10-31T08:53:34;9.87;;;6.17;;
17850;SDS011;9051;51.548;14.348;2022-10-31T08:56:29;11.90;;;5.97;;
17850;SDS011;9051;51.548;14.348;2022-10-31T08:59:03;8.63;;;5.57;;
17850;SDS011;9051;51.548;14.348;2022-10-31T09:01:48;10.83;;;5.80;;
17850;SDS011;9051;51.548;14.348;2022-10-31T09:04:21;10.27;;;6.03;;
17850;SDS011;9051;51.548;14.348;2022-10-31T09:06:55;8.50;;;6.10;;
17850;SDS011;9051;51.548;14.348;2022-10-31T09:09:28;10.17;;;5.80;;
17850;SDS011;9051;51.548;14.348;2022-10-31T09:12:01;8.80;;;6.50;;
17850;SDS011;9051;51.548;14.348;2022-10-31T09:14:58;10.33;;;6.53;;
17850;SDS011;9051;51.548;14.348;2022-10-31T09:17:38;11.13;;;7.00;;
17850;SDS011;9051;51.548;14.348;2022-10-31T09:20:22;11.70;;;6.43;;
17850;SDS011;9051;51.548;14.348;2022-10-31T09:22:57;11.20;;;6.93;;
17850;SDS011;9051;51.548;14.348;2022-10-31T09:25:32;13.97;;;7.63;;
17850;SDS011;9051;51.548;14.348;2022-10-31T09:28:24;10.40;;;6.57;;
17850;SDS011;9051;51.548;14.348;2022-10-31T09:30:57;10.47;;;7.17;;
17850;SDS011;9051;51.548;14.348;2022-10-31T09:33:49;12.13;;;6.53;;
17850;SDS011;9051;51.548;14.348;2022-10-31T09:36:41;10.97;;;6.80;;
17850;SDS011;9051;51.548;14.348;2022-10-31T09:39:22;10.67;;;7.00;;
17850;SDS011;9051;51.548;14.348;2022-10-31T09:42:14;14.27;;;7.73;;
17850;SDS011;9051;51.548;14.348;2022-10-31T09:45:03;12.50;;;7.53;;
17850;SDS011;9051;51.548;14.348;2022-10-31T09:47:43;12.87;;;7.83;;
17850;SDS011;9051;51.548;14.348;2022-10-31T09:50:37;10.67;;;7.60;;
17850;SDS011;9051;51.548;14.348;2022-10-31T09:53:51;15.87;;;8.17;;
17850;SDS011;9051;51.548;14.348;2022-10-31T09:56:32;13.93;;;7.90;;
17850;SDS011;9051;51.548;14.348;2022-10-31T09:59:17;13.20;;;8.50;;
17850;SDS011;9051;51.548;14.348;2022-10-31T10:01:56;13.13;;;6.33;;
17850;SDS011;9051;51.548;14.348;2022-10-31T10:04:32;9.60;;;7.13;;
17850;SDS011;9051;51.548;14.348;2022-10-31T10:07:35;12.53;;;6.60;;
17850;SDS011;9051;51.548;14.348;2022-10-31T10:10:34;11.13;;;7.80;;
17850;SDS011;9051;51.548;14.348;2022-10-31T10:13:42;14.60;;;7.00;;
17850;SDS011;9051;51.548;14.348;2022-10-31T10:16:36;11.00;;;7.00;;
17850;SDS011;9051;51.548;14.348;2022-10-31T10:19:19;12.17;;;7.43;;
17850;SDS011;9051;51.548;14.348;2022-10-31T10:21:59;12.47;;;7.73;;
17850;SDS011;9051;51.548;14.348;2022-10-31T10:24:47;13.17;;;7.70;;
17850;SDS011;9051;51.548;14.348;2022-10-31T10:27:34;11.73;;;7.50;;
17850;SDS011;9051;51.548;14.348;2022-10-31T10:30:16;13.60;;;7.23;;
17850;SDS011;9051;51.548;14.348;2022-10-31T10:32:51;11.67;;;8.10;;
17850;SDS011;9051;51.548;14.348;2022-10-31T10:35:27;16.23;;;8.83;;
17850;SDS011;9051;51.548;14.348;2022-10-31T10:38:04;14.63;;;7.80;;
17850;SDS011;9051;51.548;14.348;2022-10-31T10:40:44;12.33;;;7.83;;
17850;SDS011;9051;51.548;14.348;2022-10-31T10:43:20;12.67;;;8.13;;
17850;SDS011;9051;51.548;14.348;2022-10-31T10:45:59;11.43;;;8.03;;
17850;SDS011;9051;51.548;14.348;2022-10-31T10:49:04;16.77;;;9.03;;
17850;SDS011;9051;51.548;14.348;2022-10-31T10:51:45;16.47;;;9.60;;
17850;SDS011;9051;51.548;14.348;2022-10-31T10:57:20;12.60;;;8.50;;
17850;SDS011;9051;51.548;14.348;2022-10-31T10:59:58;14.63;;;8.47;;
17850;SDS011;9051;51.548;14.348;2022-10-31T11:02:34;15.63;;;8.80;;
17850;SDS011;9051;51.548;14.348;2022-10-31T11:05:21;16.30;;;8.87;;
17850;SDS011;9051;51.548;14.348;2022-10-31T11:07:55;13.97;;;9.23;;
17850;SDS011;9051;51.548;14.348;2022-10-31T11:10:27;14.63;;;9.00;;
17850;SDS011;9051;51.548;14.348;2022-10-31T11:13:01;14.37;;;9.40;;
17850;SDS011;9051;51.548;14.348;2022-10-31T11:15:49;13.17;;;9.20;;
17850;SDS011;9051;51.548;14.348;2022-10-31T11:18:24;11.93;;;8.43;;
17850;SDS011;9051;51.548;14.348;2022-10-31T11:24:01;11.30;;;8.27;;
17850;SDS011;9051;51.548;14.348;2022-10-31T11:26:34;15.03;;;8.67;;
17850;SDS011;9051;51.548;14.348;2022-10-31T11:29:12;12.60;;;7.77;;
17850;SDS011;9051;51.548;14.348;2022-10-31T11:31:46;11.83;;;8.20;;
17850;SDS011;9051;51.548;14.348;2022-10-31T11:34:26;13.33;;;8.50;;
17850;SDS011;9051;51.548;14.348;2022-10-31T11:37:03;15.13;;;8.17;;
17850;SDS011;9051;51.548;14.348;2022-10-31T11:39:41;12.97;;;8.03;;
17850;SDS011;9051;51.548;14.348;2022-10-31T11:42:19;16.27;;;7.80;;
17850;SDS011;9051;51.548;14.348;2022-10-31T11:44:53;13.37;;;7.77;;
17850;SDS011;9051;51.548;14.348;2022-10-31T11:47:27;11.77;;;7.93;;
17850;SDS011;9051;51.548;14.348;2022-10-31T11:50:08;15.47;;;8.10;;
17850;SDS011;9051;51.548;14.348;2022-10-31T11:52:42;13.20;;;8.10;;
17850;SDS011;9051;51.548;14.348;2022-10-31T11:55:15;13.30;;;8.13;;
17850;SDS011;9051;51.548;14.348;2022-10-31T11:58:00;14.23;;;8.10;;
17850;SDS011;9051;51.548;14.348;2022-10-31T12:00:33;12.40;;;8.05;;
17850;SDS011;9051;51.548;14.348;2022-10-31T12:03:15;13.52;;;7.68;;
17850;SDS011;9051;51.548;14.348;2022-10-31T12:06:08;12.32;;;7.78;;
17850;SDS011;9051;51.548;14.348;2022-10-31T12:08:44;11.50;;;8.18;;
17850;SDS011;9051;51.548;14.348;2022-10-31T12:11:30;12.93;;;7.85;;
17850;SDS011;9051;51.548;14.348;2022-10-31T12:14:16;18.35;;;8.52;;
17850;SDS011;9051;51.548;14.348;2022-10-31T12:17:00;13.57;;;8.48;;
17850;SDS011;9051;51.548;14.348;2022-10-31T12:19:36;14.45;;;8.20;;
17850;SDS011;9051;51.548;14.348;2022-10-31T12:22:17;13.30;;;8.38;;
17850;SDS011;9051;51.548;14.348;2022-10-31T12:25:03;12.25;;;8.68;;
17850;SDS011;9051;51.548;14.348;2022-10-31T12:27:58;10.00;;;7.82;;
17850;SDS011;9051;51.548;14.348;2022-10-31T12:30:41;10.90;;;8.68;;
17850;SDS011;9051;51.548;14.348;2022-10-31T12:33:29;14.43;;;8.93;;
17850;SDS011;9051;51.548;14.348;2022-10-31T12:36:26;14.60;;;8.13;;
17850;SDS011;9051;51.548;14.348;2022-10-31T12:39:18;11.27;;;8.23;;
17850;SDS011;9051;51.548;14.348;2022-10-31T12:41:57;13.48;;;8.18;;
17850;SDS011;9051;51.548;14.348;2022-10-31T12:44:48;12.85;;;8.30;;
17850;SDS011;9051;51.548;14.348;2022-10-31T12:47:37;13.45;;;8.40;;
17850;SDS011;9051;51.548;14.348;2022-10-31T12:50:22;13.77;;;8.13;;
17850;SDS011;9051;51.548;14.348;2022-10-31T12:53:09;17.48;;;8.32;;
17850;SDS011;9051;51.548;14.348;2022-10-31T12:56:02;12.30;;;8.25;;
17850;SDS011;9051;51.548;14.348;2022-10-31T12:58:47;13.32;;;8.00;;
17850;SDS011;9051;51.548;14.348;2022-10-31T13:01:26;12.50;;;8.07;;
17850;SDS011;9051;51.548;14.348;2022-10-31T13:04:05;14.77;;;8.10;;
17850;SDS011;9051;51.548;14.348;2022-10-31T13:06:45;12.60;;;7.85;;
17850;SDS011;9051;51.548;14.348;2022-10-31T13:09:22;14.35;;;7.35;;
17850;SDS011;9051;51.548;14.348;2022-10-31T13:12:02;13.15;;;7.63;;
17850;SDS011;9051;51.548;14.348;2022-10-31T13:14:40;13.05;;;7.65;;
17850;SDS011;9051;51.548;14.348;2022-10-31T13:17:18;11.23;;;6.93;;
17850;SDS011;9051;51.548;14.348;2022-10-31T13:19:57;13.15;;;7.45;;
17850;SDS011;9051;51.548;14.348;2022-10-31T13:22:45;11.15;;;7.68;;
17850;SDS011;9051;51.548;14.348;2022-10-31T13:25:21;11.20;;;7.30;;
17850;SDS011;9051;51.548;14.348;2022-10-31T13:27:58;12.85;;;7.10;;
17850;SDS011;9051;51.548;14.348;2022-10-31T13:30:36;14.00;;;7.40;;
17850;SDS011;9051;51.548;14.348;2022-10-31T13:33:12;14.82;;;7.95;;
17850;SDS011;9051;51.548;14.348;2022-10-31T13:35:49;15.75;;;7.50;;
17850;SDS011;9051;51.548;14.348;2022-10-31T13:38:27;17.33;;;7.88;;
17850;SDS011;9051;51.548;14.348;2022-10-31T13:41:11;13.23;;;7.57;;
17850;SDS011;9051;51.548;14.348;2022-10-31T13:43:58;14.80;;;8.00;;
17850;SDS011;9051;51.548;14.348;2022-10-31T13:46:36;12.38;;;7.25;;
17850;SDS011;9051;51.548;14.348;2022-10-31T13:49:24;13.00;;;7.78;;
17850;SDS011;9051;51.548;14.348;2022-10-31T13:52:04;13.90;;;8.10;;
17850;SDS011;9051;51.548;14.348;2022-10-31T13:54:43;15.18;;;9.10;;
17850;SDS011;9051;51.548;14.348;2022-10-31T13:57:22;11.70;;;8.20;;
17850;SDS011;9051;51.548;14.348;2022-10-31T14:00:05;13.65;;;7.72;;
17850;SDS011;9051;51.548;14.348;2022-10-31T14:02:53;13.15;;;7.45;;
17850;SDS011;9051;51.548;14.348;2022-10-31T14:05:29;9.45;;;7.35;;
17850;SDS011;9051;51.548;14.348;2022-10-31T14:08:04;11.80;;;6.90;;
17850;SDS011;9051;51.548;14.348;2022-10-31T14:10:38;12.18;;;7.07;;
17850;SDS011;9051;51.548;14.348;2022-10-31T14:13:20;14.95;;;7.78;;
17850;SDS011;9051;51.548;14.348;2022-10-31T14:15:58;11.15;;;6.95;;
17850;SDS011;9051;51.548;14.348;2022-10-31T14:18:32;14.15;;;6.97;;
17850;SDS011;9051;51.548;14.348;2022-10-31T14:21:13;11.90;;;7.22;;
17850;SDS011;9051;51.548;14.348;2022-10-31T14:23:47;14.10;;;7.93;;
17850;SDS011;9051;51.548;14.348;2022-10-31T14:26:33;15.43;;;7.78;;
17850;SDS011;9051;51.548;14.348;2022-10-31T14:32:04;12.57;;;7.40;;
17850;SDS011;9051;51.548;14.348;2022-10-31T14:34:41;13.77;;;7.28;;
17850;SDS011;9051;51.548;14.348;2022-10-31T14:37:28;13.70;;;7.75;;
17850;SDS011;9051;51.548;14.348;2022-10-31T14:40:32;10.88;;;7.30;;
17850;SDS011;9051;51.548;14.348;2022-10-31T14:46:16;13.70;;;7.50;;
17850;SDS011;9051;51.548;14.348;2022-10-31T14:49:02;11.00;;;7.40;;
17850;SDS011;9051;51.548;14.348;2022-10-31T14:51:45;11.25;;;7.55;;
17850;SDS011;9051;51.548;14.348;2022-10-31T14:54:19;12.25;;;8.00;;
17850;SDS011;9051;51.548;14.348;2022-10-31T14:56:56;12.45;;;7.32;;
17850;SDS011;9051;51.548;14.348;2022-10-31T14:59:35;13.15;;;7.13;;
17850;SDS011;9051;51.548;14.348;2022-10-31T15:02:09;10.63;;;7.40;;
17850;SDS011;9051;51.548;14.348;2022-10-31T15:04:47;10.80;;;6.43;;
17850;SDS011;9051;51.548;14.348;2022-10-31T15:07:20;12.13;;;6.85;;
17850;SDS011;9051;51.548;14.348;2022-10-31T15:09:55;10.25;;;6.50;;
17850;SDS011;9051;51.548;14.348;2022-10-31T15:12:28;9.45;;;6.90;;
17850;SDS011;9051;51.548;14.348;2022-10-31T15:15:10;11.07;;;6.75;;
17850;SDS011;9051;51.548;14.348;2022-10-31T15:17:46;11.13;;;6.70;;
17850;SDS011;9051;51.548;14.348;2022-10-31T15:20:22;15.95;;;7.88;;
17850;SDS011;9051;51.548;14.348;2022-10-31T15:23:01;10.02;;;7.40;;
17850;SDS011;9051;51.548;14.348;2022-10-31T15:25:34;12.00;;;8.13;;
17850;SDS011;9051;51.548;14.348;2022-10-31T15:28:12;8.07;;;7.28;;
17850;SDS011;9051;51.548;14.348;2022-10-31T15:30:52;10.30;;;7.97;;
17850;SDS011;9051;51.548;14.348;2022-10-31T15:33:26;14.10;;;8.40;;
17850;SDS011;9051;51.548;14.348;2022-10-31T15:36:01;12.23;;;7.97;;
17850;SDS011;9051;51.548;14.348;2022-10-31T15:38:33;13.00;;;8.30;;
17850;SDS011;9051;51.548;14.348;2022-10-31T15:41:17;15.70;;;7.67;;
17850;SDS011;9051;51.548;14.348;2022-10-31T15:43:53;11.53;;;7.53;;
17850;SDS011;9051;51.548;14.348;2022-10-31T15:46:26;11.13;;;8.53;;
17850;SDS011;9051;51.548;14.348;2022-10-31T15:48:58;11.43;;;8.17;;
17850;SDS011;9051;51.548;14.348;2022-10-31T15:51:33;13.53;;;7.80;;
17850;SDS011;9051;51.548;14.348;2022-10-31T15:54:10;13.77;;;7.67;;
17850;SDS011;9051;51.548;14.348;2022-10-31T15:56:44;11.63;;;7.77;;
17850;SDS011;9051;51.548;14.348;2022-10-31T15:59:18;14.27;;;8.23;;